createdAt,value
2022-10-09T00:01:39.322Z,20.73
2022-10-09T00:06:34.636Z,26.98
2022-10-09T00:11:30.469Z,23.90
2022-10-09T00:16:25.208Z,22.60
2022-10-09T00:21:24.933Z,23.35
2022-10-09T00:26:19.563Z,26.60
2022-10-09T00:31:14.038Z,26.13
2022-10-09T00:36:10.489Z,25.23
2022-10-09T00:41:03.132Z,21.98
2022-10-09T00:45:57.529Z,24.17
2022-10-09T00:50:54.291Z,21.27
2022-10-09T00:55:47.409Z,23.27
2022-10-09T01:00:41.346Z,24.52
2022-10-09T01:06:03.084Z,27.63
2022-10-09T01:11:06.038Z,25.90
2022-10-09T01:16:19.289Z,29.50
2022-10-09T01:21:20.797Z,27.27
2022-10-09T01:26:16.821Z,28.90
2022-10-09T01:31:11.961Z,32.30
2022-10-09T01:36:07.490Z,37.63
2022-10-09T01:41:03.999Z,34.22
2022-10-09T01:46:18.059Z,32.38
2022-10-09T01:51:11.411Z,28.95
2022-10-09T01:56:15.415Z,33.97
2022-10-09T02:01:12.475Z,30.77
2022-10-09T02:06:08.241Z,33.60
2022-10-09T02:11:03.769Z,36.17
2022-10-09T02:16:27.306Z,35.75
2022-10-09T02:21:24.858Z,34.83
2022-10-09T02:26:22.900Z,33.25
2022-10-09T02:31:23.409Z,32.63
2022-10-09T02:36:17.448Z,39.88
2022-10-09T02:41:11.255Z,36.17
2022-10-09T02:46:05.351Z,38.78
2022-10-09T02:51:00.565Z,38.13
2022-10-09T02:55:54.384Z,39.60
2022-10-09T03:00:52.001Z,37.13
2022-10-09T03:05:46.067Z,35.40
2022-10-09T03:10:40.216Z,42.25
2022-10-09T03:15:42.482Z,42.58
2022-10-09T03:20:36.726Z,42.60
2022-10-09T03:25:31.385Z,38.80
2022-10-09T03:30:25.205Z,38.13
2022-10-09T03:35:18.852Z,33.75
2022-10-09T03:40:12.456Z,37.55
2022-10-09T03:45:07.893Z,38.35
2022-10-09T03:50:01.203Z,39.40
2022-10-09T03:54:55.340Z,36.28
2022-10-09T03:59:49.144Z,38.17
2022-10-09T04:04:45.803Z,37.10
2022-10-09T04:09:39.704Z,37.90
2022-10-09T04:14:31.863Z,36.72
2022-10-09T04:19:25.664Z,38.15
2022-10-09T04:24:19.673Z,37.28
2022-10-09T04:29:13.811Z,37.22
2022-10-09T04:34:07.861Z,38.85
2022-10-09T04:39:01.751Z,40.90
2022-10-09T04:43:56.772Z,37.50
2022-10-09T04:48:50.576Z,46.08
2022-10-09T04:53:44.079Z,42.42
2022-10-09T04:58:39.708Z,42.10
2022-10-09T05:03:33.294Z,48.75
2022-10-09T05:08:26.768Z,43.45
2022-10-09T05:13:20.657Z,41.70
2022-10-09T05:18:14.387Z,39.30
2022-10-09T05:23:08.531Z,46.03
2022-10-09T05:28:02.705Z,39.47
2022-10-09T05:32:56.307Z,40.38
2022-10-09T05:37:50.108Z,35.90
2022-10-09T05:42:43.849Z,44.63
2022-10-09T05:47:37.684Z,41.05
2022-10-09T05:52:31.567Z,40.65
2022-10-09T05:57:24.935Z,38.47
2022-10-09T06:02:25.541Z,45.30
2022-10-09T06:07:19.284Z,39.42
2022-10-09T06:12:13.045Z,44.40
2022-10-09T06:17:07.638Z,45.47
2022-10-09T06:22:01.811Z,41.10
2022-10-09T06:26:55.795Z,43.40
2022-10-09T06:31:48.969Z,42.47
2022-10-09T06:36:42.932Z,42.78
2022-10-09T06:41:36.811Z,43.42
2022-10-09T06:46:44.187Z,49.85
2022-10-09T06:51:38.455Z,50.65
2022-10-09T06:56:33.236Z,52.35
2022-10-09T07:01:27.310Z,52.30
2022-10-09T07:06:22.395Z,50.85
2022-10-09T07:11:44.070Z,49.45
2022-10-09T07:16:40.254Z,52.33
2022-10-09T07:21:34.648Z,46.88
2022-10-09T07:26:30.613Z,52.72
2022-10-09T07:31:25.357Z,53.13
2022-10-09T07:36:19.321Z,59.35
2022-10-09T07:41:13.718Z,53.20
2022-10-09T07:46:11.746Z,53.90
2022-10-09T07:56:05.306Z,52.83
2022-10-09T08:01:04.074Z,48.08
2022-10-09T08:05:57.789Z,47.85
2022-10-09T08:10:52.050Z,40.13
2022-10-09T08:15:46.587Z,44.00
2022-10-09T08:20:40.531Z,30.20
2022-10-09T08:25:38.227Z,28.92
2022-10-09T08:30:32.296Z,28.37
2022-10-09T08:35:26.919Z,26.15
2022-10-09T08:40:46.576Z,29.92
2022-10-09T08:45:41.002Z,30.02
2022-10-09T08:50:39.467Z,33.75
2022-10-09T08:55:40.346Z,35.63
2022-10-09T09:01:15.147Z,31.65
2022-10-09T09:06:15.565Z,25.98
2022-10-09T09:11:26.946Z,30.00
2022-10-09T09:16:52.194Z,29.83
2022-10-09T09:22:09.576Z,32.50
2022-10-09T09:27:07.440Z,33.85
2022-10-09T09:32:02.654Z,29.15
2022-10-09T09:36:59.850Z,29.10
2022-10-09T09:41:54.595Z,33.20
2022-10-09T09:46:48.920Z,32.15
2022-10-09T09:51:42.548Z,36.97
2022-10-09T09:57:10.332Z,35.35
2022-10-09T10:02:17.797Z,37.58
2022-10-09T10:07:11.801Z,27.75
2022-10-09T10:12:07.797Z,33.45
2022-10-09T10:17:02.267Z,30.40
2022-10-09T10:22:01.814Z,33.25
2022-10-09T10:26:59.690Z,29.38
2022-10-09T10:32:13.460Z,27.25
2022-10-09T10:37:15.483Z,25.33
2022-10-09T10:42:22.133Z,28.10
2022-10-09T10:47:28.700Z,29.33
2022-10-09T10:52:37.465Z,21.77
2022-10-09T10:57:40.760Z,20.08
2022-10-09T11:03:07.902Z,19.25
2022-10-09T11:08:20.152Z,15.68
2022-10-09T11:13:32.851Z,18.90
2022-10-09T11:18:37.108Z,17.35
2022-10-09T11:23:58.079Z,15.52
2022-10-09T11:28:59.092Z,16.52
2022-10-09T11:33:57.756Z,15.85
2022-10-09T11:38:54.587Z,13.55
2022-10-09T11:44:16.175Z,12.80
2022-10-09T11:49:23.829Z,13.93
2022-10-09T11:59:23.298Z,15.15
2022-10-09T12:04:54.395Z,13.90
2022-10-09T12:09:50.966Z,21.25
2022-10-09T12:14:52.501Z,17.52
2022-10-09T12:19:46.306Z,16.15
2022-10-09T12:24:48.756Z,15.43
2022-10-09T12:29:46.457Z,13.82
2022-10-09T12:34:46.172Z,13.10
2022-10-09T12:39:39.913Z,12.95
2022-10-09T12:44:40.733Z,11.32
2022-10-09T12:49:34.012Z,15.18
2022-10-09T12:54:28.897Z,12.85
2022-10-09T12:59:23.222Z,13.10
2022-10-09T13:04:27.338Z,15.05
2022-10-09T13:09:33.764Z,11.10
2022-10-09T13:14:39.194Z,10.30
2022-10-09T13:19:36.222Z,9.05
2022-10-09T13:24:30.014Z,8.77
2022-10-09T13:29:27.530Z,7.20
2022-10-09T13:34:24.777Z,8.27
2022-10-09T13:39:18.641Z,9.48
2022-10-09T13:44:17.992Z,7.60
2022-10-09T13:49:13.815Z,10.73
2022-10-09T13:54:07.574Z,7.72
2022-10-09T13:59:02.111Z,7.00
2022-10-09T14:03:58.845Z,6.75
2022-10-09T14:08:56.235Z,10.30
2022-10-09T14:13:50.471Z,9.20
2022-10-09T14:18:45.903Z,7.72
2022-10-09T14:23:40.497Z,6.95
2022-10-09T14:28:35.626Z,9.27
2022-10-09T14:33:34.857Z,5.15
2022-10-09T14:38:29.502Z,8.57
2022-10-09T14:43:24.480Z,8.20
2022-10-09T14:48:19.401Z,10.05
2022-10-09T14:53:13.142Z,12.77
2022-10-09T14:58:07.625Z,10.73
2022-10-09T15:03:00.883Z,6.80
2022-10-09T15:07:55.928Z,10.07
2022-10-09T15:12:52.729Z,4.68
2022-10-09T15:17:48.491Z,5.68
2022-10-09T15:22:43.677Z,5.80
2022-10-09T15:27:44.466Z,5.00
2022-10-09T15:32:40.187Z,5.82
2022-10-09T15:37:34.592Z,6.63
2022-10-09T15:42:29.506Z,7.22
2022-10-09T15:47:46.503Z,12.25
2022-10-09T15:52:46.336Z,8.65
2022-10-09T15:57:51.623Z,12.98
2022-10-09T16:02:52.227Z,10.13
2022-10-09T16:07:50.203Z,24.02
2022-10-09T16:12:48.509Z,8.45
2022-10-09T16:17:43.588Z,11.95
2022-10-09T16:22:44.484Z,16.05
2022-10-09T16:27:40.210Z,9.68
2022-10-09T16:32:38.612Z,9.18
2022-10-09T16:37:38.078Z,10.73
2022-10-09T16:47:37.943Z,25.88
2022-10-09T16:52:33.548Z,13.80
2022-10-09T16:57:29.724Z,10.68
2022-10-09T17:02:24.708Z,13.45
2022-10-09T17:07:21.526Z,11.90
2022-10-09T17:12:15.316Z,9.25
2022-10-09T17:17:10.740Z,12.30
2022-10-09T17:22:04.635Z,9.43
2022-10-09T17:27:01.908Z,9.77
2022-10-09T17:31:55.924Z,11.02
2022-10-09T17:36:49.749Z,15.82
2022-10-09T17:41:45.980Z,11.35
2022-10-09T17:46:39.543Z,13.15
2022-10-09T17:51:35.667Z,14.57
2022-10-09T17:56:30.880Z,20.30
2022-10-09T18:01:24.709Z,10.55
2022-10-09T18:06:19.767Z,10.35
2022-10-09T18:11:18.650Z,12.93
2022-10-09T18:16:14.302Z,9.88
2022-10-09T18:21:10.874Z,13.88
2022-10-09T18:26:29.207Z,15.18
2022-10-09T18:31:24.237Z,11.35
2022-10-09T18:36:20.952Z,12.35
2022-10-09T18:41:14.541Z,11.70
2022-10-09T18:46:09.626Z,11.35
2022-10-09T18:51:03.907Z,11.18
2022-10-09T18:55:57.305Z,10.75
2022-10-09T19:00:51.311Z,13.82
2022-10-09T19:05:45.445Z,14.18
2022-10-09T19:10:39.224Z,16.23
2022-10-09T19:15:33.472Z,14.27
2022-10-09T19:20:32.446Z,15.77
2022-10-09T19:25:27.671Z,14.38
2022-10-09T19:30:21.885Z,16.13
2022-10-09T19:35:15.897Z,18.02
2022-10-09T19:40:11.033Z,15.75
2022-10-09T19:45:06.591Z,15.60
2022-10-09T19:50:00.378Z,16.08
2022-10-09T19:54:54.261Z,16.20
2022-10-09T19:59:48.519Z,19.00
2022-10-09T20:04:42.361Z,21.90
2022-10-09T20:09:36.365Z,20.35
2022-10-09T20:14:30.385Z,20.77
2022-10-09T20:19:25.535Z,24.48
2022-10-09T20:24:23.134Z,19.08
2022-10-09T20:29:17.235Z,20.33
2022-10-09T20:34:11.229Z,22.10
2022-10-09T20:39:10.028Z,19.30
2022-10-09T20:44:04.315Z,18.70
2022-10-09T20:48:58.519Z,23.25
2022-10-09T20:53:55.803Z,19.20
2022-10-09T20:58:50.054Z,23.35
2022-10-09T21:03:44.633Z,19.77
2022-10-09T21:08:38.163Z,21.70
2022-10-09T21:13:32.441Z,21.95
2022-10-09T21:18:27.032Z,19.90
2022-10-09T21:23:20.844Z,20.10
2022-10-09T21:28:14.520Z,21.65
2022-10-09T21:33:08.981Z,22.48
2022-10-09T21:38:03.195Z,21.42
2022-10-09T21:42:57.623Z,22.08
2022-10-09T21:47:51.637Z,26.10
2022-10-09T21:52:45.740Z,20.98
2022-10-09T21:57:39.284Z,23.02
2022-10-09T22:02:32.424Z,24.67
2022-10-09T22:07:26.960Z,20.40
2022-10-09T22:12:20.147Z,22.15
2022-10-09T22:17:14.269Z,24.85
2022-10-09T22:22:07.888Z,21.15
2022-10-09T22:27:01.539Z,22.48
2022-10-09T22:31:55.068Z,22.95
2022-10-09T22:36:48.474Z,22.75
2022-10-09T22:41:41.612Z,23.27
2022-10-09T22:46:40.476Z,25.33
2022-10-09T22:51:34.132Z,30.73
2022-10-09T22:56:39.706Z,25.98
2022-10-09T23:02:02.645Z,26.10
2022-10-09T23:06:58.644Z,26.17
2022-10-09T23:11:52.115Z,25.00
2022-10-09T23:16:45.812Z,27.17
2022-10-09T23:21:40.837Z,29.80
2022-10-09T23:26:37.912Z,26.80
2022-10-09T23:31:32.087Z,26.50
2022-10-09T23:36:27.713Z,26.67
2022-10-09T23:41:23.740Z,24.33
2022-10-09T23:46:38.421Z,22.70
2022-10-09T23:51:32.149Z,21.50
2022-10-09T23:56:31.032Z,18.65
